sensor_id;sensor_type;location;lat;lon;timestamp;pressure;altitude;pressure_sealevel;temperature;humidity
53940;BME280;39850;43.324;21.916;2022-07-17T11:22:58;997.0;;;20.8;50.0
53940;BME280;39850;43.324;21.916;2022-07-17T11:27:37;997.0;;;20.8;50.0
53940;BME280;39850;43.324;21.916;2022-07-17T11:32:16;997.0;;;20.8;50.0
53940;BME280;39850;43.324;21.916;2022-07-17T11:37:09;997.0;;;20.8;50.0
53940;BME280;39850;43.324;21.916;2022-07-17T11:41:54;997.0;;;20.8;50.0
53940;BME280;39850;43.324;21.916;2022-07-17T11:46:37;997.0;;;20.8;50.0
53940;BME280;39850;43.324;21.916;2022-07-17T11:51:15;997.0;;;20.8;50.0
53940;BME280;39850;43.324;21.916;2022-07-17T12:24:07;997.0;;;25.4;34.0
53940;BME280;39850;43.324;21.916;2022-07-17T12:28:47;997.0;;;25.4;34.0
53940;BME280;39850;43.324;21.916;2022-07-17T12:33:25;997.0;;;25.4;33.0
53940;BME280;39850;43.324;21.916;2022-07-17T12:38:02;997.0;;;25.4;33.0
53940;BME280;39850;43.324;21.916;2022-07-17T12:42:39;997.0;;;25.4;33.0
53940;BME280;39850;43.324;21.916;2022-07-17T12:47:16;997.0;;;25.4;33.0
53940;BME280;39850;43.324;21.916;2022-07-17T12:51:55;997.0;;;25.4;33.0
53940;BME280;39850;43.324;21.916;2022-07-17T12:56:32;997.0;;;25.4;33.0
53940;BME280;39850;43.324;21.916;2022-07-17T13:01:09;997.0;;;25.4;33.0
53940;BME280;39850;43.324;21.916;2022-07-17T13:05:46;997.0;;;25.5;33.0
53940;BME280;39850;43.324;21.916;2022-07-17T13:10:24;997.0;;;25.5;33.0
53940;BME280;39850;43.324;21.916;2022-07-17T13:42:40;997.0;;;25.1;33.0
53940;BME280;39850;43.324;21.916;2022-07-17T13:47:17;997.0;;;25.1;33.0
53940;BME280;39850;43.324;21.916;2022-07-17T13:51:54;997.0;;;25.1;33.0
53940;BME280;39850;43.324;21.916;2022-07-17T13:56:31;997.0;;;24.8;33.0
53940;BME280;39850;43.324;21.916;2022-07-17T14:01:08;997.0;;;24.8;33.0
53940;BME280;39850;43.324;21.916;2022-07-17T14:05:47;997.0;;;24.5;34.0
53940;BME280;39850;43.324;21.916;2022-07-17T14:10:24;997.0;;;24.5;34.0
53940;BME280;39850;43.324;21.916;2022-07-17T14:15:01;997.0;;;24.4;34.0
53940;BME280;39850;43.324;21.916;2022-07-17T14:19:39;997.0;;;24.4;34.0
53940;BME280;39850;43.324;21.916;2022-07-17T14:24:16;997.0;;;24.5;34.0
53940;BME280;39850;43.324;21.916;2022-07-17T14:28:54;997.0;;;24.5;34.0
53940;BME280;39850;43.324;21.916;2022-07-17T15:05:51;997.0;;;24.4;35.0
53940;BME280;39850;43.324;21.916;2022-07-17T15:10:29;997.0;;;24.4;35.0
53940;BME280;39850;43.324;21.916;2022-07-17T15:15:10;997.0;;;24.4;35.0
53940;BME280;39850;43.324;21.916;2022-07-17T15:19:47;997.0;;;24.4;35.0
53940;BME280;39850;43.324;21.916;2022-07-17T15:24:24;997.0;;;24.5;35.0
53940;BME280;39850;43.324;21.916;2022-07-17T15:29:02;997.0;;;24.5;35.0
53940;BME280;39850;43.324;21.916;2022-07-17T15:33:39;997.0;;;24.5;35.0
53940;BME280;39850;43.324;21.916;2022-07-17T15:38:16;997.0;;;24.5;35.0
53940;BME280;39850;43.324;21.916;2022-07-17T15:42:53;997.0;;;24.5;35.0
53940;BME280;39850;43.324;21.916;2022-07-17T15:47:30;997.0;;;24.5;35.0
53940;BME280;39850;43.324;21.916;2022-07-17T15:52:07;997.0;;;24.5;35.0
53940;BME280;39850;43.324;21.916;2022-07-17T16:24:23;997.0;;;24.6;36.0
53940;BME280;39850;43.324;21.916;2022-07-17T16:29:00;997.0;;;24.6;36.0
53940;BME280;39850;43.324;21.916;2022-07-17T16:33:38;997.0;;;24.0;36.0
53940;BME280;39850;43.324;21.916;2022-07-17T16:38:15;997.0;;;24.0;36.0
53940;BME280;39850;43.324;21.916;2022-07-17T16:42:53;997.0;;;23.5;36.0
53940;BME280;39850;43.324;21.916;2022-07-17T16:47:30;997.0;;;23.5;36.0
53940;BME280;39850;43.324;21.916;2022-07-17T16:52:08;997.0;;;23.5;36.0
53940;BME280;39850;43.324;21.916;2022-07-17T16:56:44;997.0;;;23.5;36.0
53940;BME280;39850;43.324;21.916;2022-07-17T17:01:21;997.0;;;23.5;36.0
53940;BME280;39850;43.324;21.916;2022-07-17T17:05:58;997.0;;;23.5;36.0
53940;BME280;39850;43.324;21.916;2022-07-17T17:10:35;997.0;;;23.5;36.0
53940;BME280;39850;43.324;21.916;2022-07-17T17:42:57;997.0;;;23.5;34.0
53940;BME280;39850;43.324;21.916;2022-07-17T17:47:35;997.0;;;23.5;34.0
53940;BME280;39850;43.324;21.916;2022-07-17T17:52:12;997.0;;;23.5;34.0
53940;BME280;39850;43.324;21.916;2022-07-17T17:56:49;997.0;;;23.5;34.0
53940;BME280;39850;43.324;21.916;2022-07-17T18:01:27;997.0;;;23.5;34.0
53940;BME280;39850;43.324;21.916;2022-07-17T18:06:06;997.0;;;23.5;34.0
53940;BME280;39850;43.324;21.916;2022-07-17T18:10:43;997.0;;;23.5;34.0
53940;BME280;39850;43.324;21.916;2022-07-17T18:15:21;997.0;;;23.5;35.0
53940;BME280;39850;43.324;21.916;2022-07-17T18:19:57;997.0;;;23.5;35.0
53940;BME280;39850;43.324;21.916;2022-07-17T18:24:34;997.0;;;23.5;34.0
53940;BME280;39850;43.324;21.916;2022-07-17T18:29:11;997.0;;;23.5;34.0
53940;BME280;39850;43.324;21.916;2022-07-17T19:06:02;998.0;;;23.5;38.0
53940;BME280;39850;43.324;21.916;2022-07-17T19:10:40;998.0;;;23.5;38.0
53940;BME280;39850;43.324;21.916;2022-07-17T19:15:18;998.0;;;23.5;37.0
53940;BME280;39850;43.324;21.916;2022-07-17T19:19:55;998.0;;;23.5;37.0
53940;BME280;39850;43.324;21.916;2022-07-17T19:24:32;998.0;;;23.5;37.0
53940;BME280;39850;43.324;21.916;2022-07-17T19:29:09;998.0;;;23.5;37.0
53940;BME280;39850;43.324;21.916;2022-07-17T19:33:46;998.0;;;23.6;37.0
53940;BME280;39850;43.324;21.916;2022-07-17T19:38:22;998.0;;;23.6;37.0
53940;BME280;39850;43.324;21.916;2022-07-17T19:42:59;998.0;;;23.6;37.0
53940;BME280;39850;43.324;21.916;2022-07-17T19:47:36;998.0;;;23.6;37.0
53940;BME280;39850;43.324;21.916;2022-07-17T19:52:13;998.0;;;23.6;37.0
53940;BME280;39850;43.324;21.916;2022-07-17T20:24:37;998.0;;;21.9;47.0
53940;BME280;39850;43.324;21.916;2022-07-17T20:29:15;998.0;;;21.9;47.0
53940;BME280;39850;43.324;21.916;2022-07-17T20:33:52;998.0;;;21.8;47.0
53940;BME280;39850;43.324;21.916;2022-07-17T20:38:30;998.0;;;21.8;47.0
53940;BME280;39850;43.324;21.916;2022-07-17T20:43:07;998.0;;;21.8;47.0
53940;BME280;39850;43.324;21.916;2022-07-17T20:47:44;998.0;;;21.8;46.0
53940;BME280;39850;43.324;21.916;2022-07-17T20:52:21;998.0;;;21.8;46.0
53940;BME280;39850;43.324;21.916;2022-07-17T20:56:58;998.0;;;21.8;46.0
53940;BME280;39850;43.324;21.916;2022-07-17T21:01:35;998.0;;;21.8;46.0
53940;BME280;39850;43.324;21.916;2022-07-17T21:06:12;998.0;;;21.8;46.0
53940;BME280;39850;43.324;21.916;2022-07-17T21:10:49;998.0;;;21.8;46.0
53940;BME280;39850;43.324;21.916;2022-07-17T21:47:48;999.0;;;19.8;52.0
53940;BME280;39850;43.324;21.916;2022-07-17T21:52:25;999.0;;;19.8;52.0
53940;BME280;39850;43.324;21.916;2022-07-17T21:57:03;999.0;;;19.8;51.0
53940;BME280;39850;43.324;21.916;2022-07-17T22:01:43;999.0;;;19.8;51.0
53940;BME280;39850;43.324;21.916;2022-07-17T22:06:21;999.0;;;19.9;50.0
53940;BME280;39850;43.324;21.916;2022-07-17T22:11:03;999.0;;;19.9;50.0
53940;BME280;39850;43.324;21.916;2022-07-17T22:15:43;999.0;;;19.9;50.0
53940;BME280;39850;43.324;21.916;2022-07-17T22:20:23;999.0;;;19.9;50.0
53940;BME280;39850;43.324;21.916;2022-07-17T22:25:04;999.0;;;19.9;50.0
53940;BME280;39850;43.324;21.916;2022-07-17T22:29:45;999.0;;;19.9;50.0
53940;BME280;39850;43.324;21.916;2022-07-17T23:06:51;999.0;;;18.3;54.0
53940;BME280;39850;43.324;21.916;2022-07-17T23:11:31;999.0;;;18.3;54.0
53940;BME280;39850;43.324;21.916;2022-07-17T23:16:11;999.0;;;18.2;54.0
53940;BME280;39850;43.324;21.916;2022-07-17T23:20:48;999.0;;;18.2;54.0
53940;BME280;39850;43.324;21.916;2022-07-17T23:25:25;999.0;;;18.2;54.0
53940;BME280;39850;43.324;21.916;2022-07-17T23:30:08;999.0;;;18.2;54.0
53940;BME280;39850;43.324;21.916;2022-07-17T23:34:48;999.0;;;18.0;54.0
53940;BME280;39850;43.324;21.916;2022-07-17T23:39:25;999.0;;;18.0;54.0
53940;BME280;39850;43.324;21.916;2022-07-17T23:44:04;999.0;;;17.7;54.0
53940;BME280;39850;43.324;21.916;2022-07-17T23:48:41;999.0;;;17.7;54.0
53940;BME280;39850;43.324;21.916;2022-07-17T23:53:17;999.0;;;17.7;54.0
